sensor_id;sensor_type;location;lat;lon;timestamp;P1;durP1;ratioP1;P2;durP2;ratioP2
69026;SDS011;56080;47.594;19.116;2023-06-10T00:09:06;5.80;;;3.30;;
69026;SDS011;56080;47.594;19.116;2023-06-10T00:19:15;6.40;;;4.10;;
69026;SDS011;56080;47.594;19.116;2023-06-10T00:29:09;6.90;;;4.20;;
69026;SDS011;56080;47.594;19.116;2023-06-10T00:39:10;7.70;;;4.10;;
69026;SDS011;56080;47.594;19.116;2023-06-10T00:49:11;6.60;;;4.30;;
69026;SDS011;56080;47.594;19.116;2023-06-10T00:59:13;6.30;;;3.80;;
69026;SDS011;56080;47.594;19.116;2023-06-10T01:09:40;6.00;;;3.70;;
69026;SDS011;56080;47.594;19.116;2023-06-10T01:19:16;6.10;;;3.50;;
69026;SDS011;56080;47.594;19.116;2023-06-10T01:29:22;7.00;;;4.20;;
69026;SDS011;56080;47.594;19.116;2023-06-10T01:39:21;6.90;;;4.20;;
69026;SDS011;56080;47.594;19.116;2023-06-10T01:49:20;7.10;;;4.40;;
69026;SDS011;56080;47.594;19.116;2023-06-10T01:59:21;8.00;;;5.00;;
69026;SDS011;56080;47.594;19.116;2023-06-10T02:09:23;8.20;;;4.30;;
69026;SDS011;56080;47.594;19.116;2023-06-10T02:19:25;6.40;;;4.10;;
69026;SDS011;56080;47.594;19.116;2023-06-10T02:29:25;6.60;;;4.10;;
69026;SDS011;56080;47.594;19.116;2023-06-10T02:39:27;7.00;;;4.30;;
69026;SDS011;56080;47.594;19.116;2023-06-10T02:49:28;7.30;;;4.50;;
69026;SDS011;56080;47.594;19.116;2023-06-10T02:59:30;6.90;;;4.00;;
69026;SDS011;56080;47.594;19.116;2023-06-10T03:09:31;5.70;;;3.40;;
69026;SDS011;56080;47.594;19.116;2023-06-10T03:19:33;7.80;;;4.40;;
69026;SDS011;56080;47.594;19.116;2023-06-10T03:29:35;6.30;;;3.90;;
69026;SDS011;56080;47.594;19.116;2023-06-10T03:39:36;5.90;;;3.70;;
69026;SDS011;56080;47.594;19.116;2023-06-10T03:49:39;6.50;;;3.60;;
69026;SDS011;56080;47.594;19.116;2023-06-10T03:59:39;6.10;;;3.70;;
69026;SDS011;56080;47.594;19.116;2023-06-10T04:09:40;6.80;;;4.40;;
69026;SDS011;56080;47.594;19.116;2023-06-10T04:19:41;6.30;;;3.90;;
69026;SDS011;56080;47.594;19.116;2023-06-10T04:29:42;5.40;;;3.20;;
69026;SDS011;56080;47.594;19.116;2023-06-10T04:39:46;5.80;;;3.20;;
69026;SDS011;56080;47.594;19.116;2023-06-10T04:49:46;5.20;;;2.90;;
69026;SDS011;56080;47.594;19.116;2023-06-10T04:59:48;5.60;;;3.00;;
69026;SDS011;56080;47.594;19.116;2023-06-10T05:09:48;6.10;;;3.50;;
69026;SDS011;56080;47.594;19.116;2023-06-10T05:19:49;6.90;;;3.60;;
69026;SDS011;56080;47.594;19.116;2023-06-10T05:29:51;5.70;;;3.40;;
69026;SDS011;56080;47.594;19.116;2023-06-10T05:39:52;6.00;;;3.20;;
69026;SDS011;56080;47.594;19.116;2023-06-10T05:49:55;6.30;;;3.00;;
69026;SDS011;56080;47.594;19.116;2023-06-10T05:59:55;5.20;;;2.90;;
69026;SDS011;56080;47.594;19.116;2023-06-10T06:09:57;5.80;;;3.30;;
69026;SDS011;56080;47.594;19.116;2023-06-10T06:19:59;5.90;;;3.30;;
69026;SDS011;56080;47.594;19.116;2023-06-10T06:30:01;5.70;;;3.20;;
69026;SDS011;56080;47.594;19.116;2023-06-10T06:40:02;6.10;;;3.60;;
69026;SDS011;56080;47.594;19.116;2023-06-10T06:50:04;5.60;;;3.50;;
69026;SDS011;56080;47.594;19.116;2023-06-10T07:00:05;6.10;;;3.90;;
69026;SDS011;56080;47.594;19.116;2023-06-10T07:10:07;6.60;;;4.40;;
69026;SDS011;56080;47.594;19.116;2023-06-10T07:20:09;6.50;;;4.70;;
69026;SDS011;56080;47.594;19.116;2023-06-10T07:30:11;7.40;;;5.50;;
69026;SDS011;56080;47.594;19.116;2023-06-10T07:40:12;8.90;;;6.80;;
69026;SDS011;56080;47.594;19.116;2023-06-10T07:50:14;9.40;;;8.00;;
69026;SDS011;56080;47.594;19.116;2023-06-10T08:00:16;8.90;;;8.00;;
69026;SDS011;56080;47.594;19.116;2023-06-10T08:10:18;9.30;;;8.20;;
69026;SDS011;56080;47.594;19.116;2023-06-10T08:30:23;9.80;;;8.40;;
69026;SDS011;56080;47.594;19.116;2023-06-10T08:40:24;9.00;;;7.90;;
69026;SDS011;56080;47.594;19.116;2023-06-10T08:50:27;9.30;;;7.80;;
69026;SDS011;56080;47.594;19.116;2023-06-10T09:00:29;10.10;;;8.10;;
69026;SDS011;56080;47.594;19.116;2023-06-10T09:10:31;8.40;;;7.50;;
69026;SDS011;56080;47.594;19.116;2023-06-10T09:20:33;8.80;;;7.10;;
69026;SDS011;56080;47.594;19.116;2023-06-10T09:30:37;7.90;;;6.60;;
69026;SDS011;56080;47.594;19.116;2023-06-10T09:40:54;10.00;;;8.80;;
69026;SDS011;56080;47.594;19.116;2023-06-10T09:50:43;10.90;;;9.80;;
69026;SDS011;56080;47.594;19.116;2023-06-10T10:00:42;9.70;;;8.60;;
69026;SDS011;56080;47.594;19.116;2023-06-10T10:10:43;9.40;;;8.00;;
69026;SDS011;56080;47.594;19.116;2023-06-10T10:20:49;9.80;;;8.40;;
69026;SDS011;56080;47.594;19.116;2023-06-10T10:30:51;9.70;;;8.30;;
69026;SDS011;56080;47.594;19.116;2023-06-10T10:40:50;7.30;;;5.80;;
69026;SDS011;56080;47.594;19.116;2023-06-10T10:50:59;8.10;;;5.50;;
69026;SDS011;56080;47.594;19.116;2023-06-10T11:00:54;7.00;;;5.60;;
69026;SDS011;56080;47.594;19.116;2023-06-10T11:11:02;7.60;;;5.70;;
69026;SDS011;56080;47.594;19.116;2023-06-10T11:31:06;6.70;;;5.50;;
69026;SDS011;56080;47.594;19.116;2023-06-10T11:41:02;6.90;;;5.60;;
69026;SDS011;56080;47.594;19.116;2023-06-10T11:51:07;6.60;;;5.20;;
69026;SDS011;56080;47.594;19.116;2023-06-10T12:01:08;5.30;;;3.60;;
69026;SDS011;56080;47.594;19.116;2023-06-10T12:11:08;5.20;;;3.20;;
69026;SDS011;56080;47.594;19.116;2023-06-10T12:31:18;5.40;;;3.60;;
69026;SDS011;56080;47.594;19.116;2023-06-10T12:41:14;5.80;;;3.80;;
69026;SDS011;56080;47.594;19.116;2023-06-10T12:51:16;4.90;;;3.00;;
69026;SDS011;56080;47.594;19.116;2023-06-10T13:01:18;5.30;;;3.00;;
69026;SDS011;56080;47.594;19.116;2023-06-10T13:11:19;6.90;;;4.70;;
69026;SDS011;56080;47.594;19.116;2023-06-10T13:21:21;5.40;;;3.60;;
69026;SDS011;56080;47.594;19.116;2023-06-10T13:31:24;6.40;;;4.00;;
69026;SDS011;56080;47.594;19.116;2023-06-10T13:41:26;7.00;;;4.40;;
69026;SDS011;56080;47.594;19.116;2023-06-10T13:51:27;6.50;;;4.00;;
69026;SDS011;56080;47.594;19.116;2023-06-10T14:01:30;6.20;;;3.80;;
69026;SDS011;56080;47.594;19.116;2023-06-10T14:11:31;5.70;;;3.50;;
69026;SDS011;56080;47.594;19.116;2023-06-10T14:21:33;6.40;;;3.80;;
69026;SDS011;56080;47.594;19.116;2023-06-10T14:41:37;6.00;;;3.60;;
69026;SDS011;56080;47.594;19.116;2023-06-10T14:51:39;5.60;;;3.30;;
69026;SDS011;56080;47.594;19.116;2023-06-10T15:01:41;6.00;;;3.90;;
69026;SDS011;56080;47.594;19.116;2023-06-10T15:11:42;6.20;;;4.40;;
69026;SDS011;56080;47.594;19.116;2023-06-10T15:31:46;5.70;;;3.10;;
69026;SDS011;56080;47.594;19.116;2023-06-10T15:41:48;5.10;;;2.80;;
69026;SDS011;56080;47.594;19.116;2023-06-10T15:51:53;4.70;;;2.60;;
69026;SDS011;56080;47.594;19.116;2023-06-10T16:01:52;5.10;;;3.40;;
69026;SDS011;56080;47.594;19.116;2023-06-10T16:11:54;5.50;;;3.30;;
69026;SDS011;56080;47.594;19.116;2023-06-10T16:21:56;5.80;;;3.30;;
69026;SDS011;56080;47.594;19.116;2023-06-10T16:31:58;5.30;;;3.00;;
69026;SDS011;56080;47.594;19.116;2023-06-10T16:41:59;5.80;;;3.60;;
69026;SDS011;56080;47.594;19.116;2023-06-10T16:52:01;5.90;;;3.40;;
69026;SDS011;56080;47.594;19.116;2023-06-10T17:02:03;6.40;;;3.70;;
69026;SDS011;56080;47.594;19.116;2023-06-10T17:12:04;5.80;;;3.60;;
69026;SDS011;56080;47.594;19.116;2023-06-10T17:22:07;6.10;;;4.20;;
69026;SDS011;56080;47.594;19.116;2023-06-10T17:32:08;6.20;;;4.00;;
69026;SDS011;56080;47.594;19.116;2023-06-10T17:42:10;6.00;;;4.00;;
69026;SDS011;56080;47.594;19.116;2023-06-10T17:52:12;6.10;;;3.80;;
69026;SDS011;56080;47.594;19.116;2023-06-10T18:02:14;6.40;;;4.30;;
69026;SDS011;56080;47.594;19.116;2023-06-10T18:12:16;6.30;;;4.00;;
69026;SDS011;56080;47.594;19.116;2023-06-10T18:22:17;6.80;;;4.20;;
69026;SDS011;56080;47.594;19.116;2023-06-10T18:32:20;5.80;;;4.00;;
69026;SDS011;56080;47.594;19.116;2023-06-10T18:42:22;6.30;;;4.20;;
69026;SDS011;56080;47.594;19.116;2023-06-10T18:52:23;7.90;;;5.40;;
69026;SDS011;56080;47.594;19.116;2023-06-10T19:02:25;7.50;;;4.80;;
69026;SDS011;56080;47.594;19.116;2023-06-10T19:12:26;6.80;;;4.50;;
69026;SDS011;56080;47.594;19.116;2023-06-10T19:22:29;7.90;;;4.80;;
69026;SDS011;56080;47.594;19.116;2023-06-10T19:32:30;7.10;;;4.70;;
69026;SDS011;56080;47.594;19.116;2023-06-10T19:42:32;6.50;;;4.60;;
69026;SDS011;56080;47.594;19.116;2023-06-10T19:52:35;6.90;;;4.90;;
69026;SDS011;56080;47.594;19.116;2023-06-10T20:02:35;7.40;;;4.80;;
69026;SDS011;56080;47.594;19.116;2023-06-10T20:12:36;6.40;;;4.40;;
69026;SDS011;56080;47.594;19.116;2023-06-10T20:22:39;7.20;;;5.00;;
69026;SDS011;56080;47.594;19.116;2023-06-10T20:32:40;7.40;;;4.50;;
69026;SDS011;56080;47.594;19.116;2023-06-10T20:42:42;7.00;;;4.80;;
69026;SDS011;56080;47.594;19.116;2023-06-10T20:52:44;6.60;;;4.60;;
69026;SDS011;56080;47.594;19.116;2023-06-10T21:02:45;8.50;;;5.00;;
69026;SDS011;56080;47.594;19.116;2023-06-10T21:12:47;6.80;;;4.90;;
69026;SDS011;56080;47.594;19.116;2023-06-10T21:22:48;7.30;;;5.10;;
69026;SDS011;56080;47.594;19.116;2023-06-10T21:32:49;6.90;;;4.90;;
69026;SDS011;56080;47.594;19.116;2023-06-10T21:42:51;7.60;;;5.20;;
69026;SDS011;56080;47.594;19.116;2023-06-10T21:52:53;6.80;;;4.80;;
69026;SDS011;56080;47.594;19.116;2023-06-10T22:02:55;7.40;;;5.30;;
69026;SDS011;56080;47.594;19.116;2023-06-10T22:12:56;7.20;;;5.10;;
69026;SDS011;56080;47.594;19.116;2023-06-10T22:22:58;7.40;;;5.60;;
69026;SDS011;56080;47.594;19.116;2023-06-10T22:32:59;11.00;;;7.20;;
69026;SDS011;56080;47.594;19.116;2023-06-10T22:43:02;9.00;;;6.50;;
69026;SDS011;56080;47.594;19.116;2023-06-10T23:03:04;8.40;;;6.60;;
69026;SDS011;56080;47.594;19.116;2023-06-10T23:13:06;7.90;;;5.80;;
69026;SDS011;56080;47.594;19.116;2023-06-10T23:33:09;8.00;;;5.80;;
69026;SDS011;56080;47.594;19.116;2023-06-10T23:43:11;8.60;;;6.20;;
69026;SDS011;56080;47.594;19.116;2023-06-10T23:53:12;8.90;;;7.00;;
